createdAt,value
2023-02-09T00:01:38.487Z,-8.70
2023-02-09T00:04:08.458Z,-8.72
2023-02-09T00:06:39.219Z,-8.75
2023-02-09T00:09:10.215Z,-8.80
2023-02-09T00:12:01.915Z,-8.83
2023-02-09T00:14:34.865Z,-8.87
2023-02-09T00:17:07.164Z,-8.93
2023-02-09T00:19:37.009Z,-8.99
2023-02-09T00:22:06.807Z,-9.03
2023-02-09T00:24:39.665Z,-9.04
2023-02-09T00:27:09.704Z,-9.05
2023-02-09T00:29:39.397Z,-9.10
2023-02-09T00:32:09.248Z,-9.18
2023-02-09T00:34:39.026Z,-9.24
2023-02-09T00:37:08.965Z,-9.28
2023-02-09T00:39:38.888Z,-9.26
2023-02-09T00:42:08.430Z,-9.24
2023-02-09T00:44:42.298Z,-9.28
2023-02-09T00:47:12.637Z,-9.33
2023-02-09T00:49:44.075Z,-9.36
2023-02-09T00:52:13.619Z,-9.33
2023-02-09T00:54:43.169Z,-9.35
2023-02-09T00:57:15.654Z,-9.37
2023-02-09T00:59:44.780Z,-9.38
2023-02-09T01:02:14.633Z,-9.40
2023-02-09T01:04:44.479Z,-9.38
2023-02-09T01:07:14.623Z,-9.43
2023-02-09T01:09:45.843Z,-9.44
2023-02-09T01:12:16.150Z,-9.45
2023-02-09T01:14:46.825Z,-9.42
2023-02-09T01:17:16.352Z,-9.41
2023-02-09T01:19:45.694Z,-9.44
2023-02-09T01:22:21.049Z,-9.47
2023-02-09T01:24:51.529Z,-9.53
2023-02-09T01:27:20.559Z,-9.52
2023-02-09T01:29:50.978Z,-9.53
2023-02-09T01:32:20.578Z,-9.58
2023-02-09T01:34:53.236Z,-9.60
2023-02-09T01:37:23.592Z,-9.62
2023-02-09T01:39:54.192Z,-9.62
2023-02-09T01:42:23.851Z,-9.62
2023-02-09T01:45:16.584Z,-9.60
2023-02-09T01:47:56.011Z,-9.66
2023-02-09T01:50:31.241Z,-9.71
2023-02-09T01:53:04.103Z,-9.77
2023-02-09T01:55:41.063Z,-9.79
2023-02-09T01:58:18.253Z,-9.82
2023-02-09T02:00:51.654Z,-9.81
2023-02-09T02:03:27.016Z,-9.84
2023-02-09T02:06:06.665Z,-9.88
2023-02-09T02:08:43.989Z,-9.91
2023-02-09T02:11:14.033Z,-9.92
2023-02-09T02:13:44.407Z,-9.95
2023-02-09T02:16:40.449Z,-10.01
2023-02-09T02:19:33.378Z,-10.03
2023-02-09T02:22:27.581Z,-10.05
2023-02-09T02:25:01.111Z,-10.08
2023-02-09T02:27:48.096Z,-10.11
2023-02-09T02:30:35.228Z,-10.14
2023-02-09T02:33:19.482Z,-10.15
2023-02-09T02:36:14.446Z,-10.14
2023-02-09T02:39:12.765Z,-10.17
2023-02-09T02:42:21.467Z,-10.20
2023-02-09T02:45:29.949Z,-10.23
2023-02-09T02:48:11.256Z,-10.31
2023-02-09T02:50:58.355Z,-10.34
2023-02-09T02:53:33.031Z,-10.40
2023-02-09T02:57:03.872Z,-10.47
2023-02-09T02:59:42.378Z,-10.47
2023-02-09T03:02:29.295Z,-10.44
2023-02-09T03:05:02.035Z,-10.43
2023-02-09T03:07:33.398Z,-10.45
2023-02-09T03:10:33.125Z,-10.45
2023-02-09T03:13:34.414Z,-10.46
2023-02-09T03:16:22.094Z,-10.52
2023-02-09T03:18:56.772Z,-10.57
2023-02-09T03:21:50.253Z,-10.56
2023-02-09T03:24:46.434Z,-10.55
2023-02-09T03:27:17.706Z,-10.51
2023-02-09T03:29:55.770Z,-10.51
2023-02-09T03:32:26.533Z,-10.54
2023-02-09T03:34:58.494Z,-10.58
2023-02-09T03:37:28.478Z,-10.64
2023-02-09T03:39:57.727Z,-10.68
2023-02-09T03:42:27.035Z,-10.65
2023-02-09T03:44:57.085Z,-10.64
2023-02-09T03:47:26.563Z,-10.67
2023-02-09T03:49:58.914Z,-10.67
2023-02-09T03:52:31.489Z,-10.69
2023-02-09T03:55:02.317Z,-10.71
2023-02-09T03:57:33.993Z,-10.75
2023-02-09T04:00:04.621Z,-10.77
2023-02-09T04:02:43.909Z,-10.83
2023-02-09T04:05:14.252Z,-10.83
2023-02-09T04:07:45.195Z,-10.81
2023-02-09T04:10:15.835Z,-10.81
2023-02-09T04:12:45.939Z,-10.83
2023-02-09T04:15:15.786Z,-10.84
2023-02-09T04:17:49.902Z,-10.86
2023-02-09T04:20:20.404Z,-10.85
2023-02-09T04:22:49.982Z,-10.89
2023-02-09T04:25:19.971Z,-10.93
2023-02-09T04:27:50.139Z,-10.94
2023-02-09T04:30:20.204Z,-10.94
2023-02-09T04:32:50.737Z,-10.93
2023-02-09T04:35:22.707Z,-10.95
2023-02-09T04:37:53.333Z,-10.98
2023-02-09T04:40:23.140Z,-10.99
2023-02-09T04:42:53.494Z,-10.98
2023-02-09T04:45:27.126Z,-10.96
2023-02-09T04:47:56.327Z,-10.95
2023-02-09T04:50:26.777Z,-10.99
2023-02-09T04:52:57.355Z,-11.03
2023-02-09T04:55:27.548Z,-11.08
2023-02-09T04:58:17.296Z,-11.12
2023-02-09T05:00:50.431Z,-11.14
2023-02-09T05:03:22.520Z,-11.17
2023-02-09T05:06:02.418Z,-11.19
2023-02-09T05:08:32.351Z,-11.23
2023-02-09T05:11:02.909Z,-11.25
2023-02-09T05:13:35.154Z,-11.31
2023-02-09T05:16:13.134Z,-11.30
2023-02-09T05:18:46.985Z,-11.21
2023-02-09T05:21:19.147Z,-11.06
2023-02-09T05:23:48.337Z,-10.88
2023-02-09T05:26:20.600Z,-10.72
2023-02-09T05:28:50.685Z,-10.58
2023-02-09T05:31:22.532Z,-10.44
2023-02-09T05:33:52.380Z,-10.47
2023-02-09T05:36:21.924Z,-10.61
2023-02-09T05:38:51.407Z,-10.69
2023-02-09T05:41:41.990Z,-10.72
2023-02-09T05:44:12.624Z,-10.80
2023-02-09T05:46:42.645Z,-10.84
2023-02-09T05:49:13.285Z,-10.85
2023-02-09T05:51:43.814Z,-10.93
2023-02-09T05:54:16.291Z,-11.00
2023-02-09T05:56:46.651Z,-10.98
2023-02-09T05:59:16.676Z,-10.99
2023-02-09T06:01:50.248Z,-11.03
2023-02-09T06:04:20.952Z,-11.09
2023-02-09T06:06:51.170Z,-11.11
2023-02-09T06:09:22.303Z,-11.11
2023-02-09T06:11:52.125Z,-11.09
2023-02-09T06:14:23.392Z,-10.97
2023-02-09T06:16:55.214Z,-10.92
2023-02-09T06:19:27.685Z,-10.92
2023-02-09T06:21:58.253Z,-10.85
2023-02-09T06:24:28.046Z,-10.78
2023-02-09T06:26:57.267Z,-10.72
2023-02-09T06:29:26.620Z,-10.75
2023-02-09T06:31:57.534Z,-10.77
2023-02-09T06:34:28.940Z,-10.79
2023-02-09T06:36:58.173Z,-10.75
2023-02-09T06:39:29.978Z,-10.67
2023-02-09T06:42:00.699Z,-10.48
2023-02-09T06:44:30.809Z,-10.33
2023-02-09T06:47:02.195Z,-10.23
2023-02-09T06:49:33.246Z,-10.16
2023-02-09T06:52:02.887Z,-10.09
2023-02-09T06:54:33.061Z,-10.00
2023-02-09T06:57:02.484Z,-9.92
2023-02-09T06:59:32.606Z,-9.83
2023-02-09T07:02:02.222Z,-9.74
2023-02-09T07:04:32.874Z,-9.64
2023-02-09T07:07:07.383Z,-9.49
2023-02-09T07:09:39.737Z,-9.36
2023-02-09T07:12:11.436Z,-9.21
2023-02-09T07:14:42.394Z,-9.03
2023-02-09T07:17:16.509Z,-8.83
2023-02-09T07:19:51.745Z,-8.63
2023-02-09T07:22:23.326Z,-8.46
2023-02-09T07:24:58.165Z,-8.30
2023-02-09T07:27:28.152Z,-8.13
2023-02-09T07:30:00.465Z,-8.01
2023-02-09T07:32:30.879Z,-7.89
2023-02-09T07:35:02.816Z,-7.81
2023-02-09T07:37:34.575Z,-7.62
2023-02-09T07:40:18.752Z,-7.48
2023-02-09T07:42:52.251Z,-7.34
2023-02-09T07:45:22.648Z,-7.19
2023-02-09T07:47:53.558Z,-7.02
2023-02-09T07:50:25.441Z,-6.85
2023-02-09T07:52:56.121Z,-6.67
2023-02-09T07:55:27.858Z,-6.55
2023-02-09T07:57:58.055Z,-6.43
2023-02-09T08:00:28.600Z,-6.28
2023-02-09T08:02:57.873Z,-6.08
2023-02-09T08:05:50.858Z,-5.87
2023-02-09T08:08:20.294Z,-5.70
2023-02-09T08:10:54.038Z,-5.62
2023-02-09T08:13:33.411Z,-5.51
2023-02-09T08:16:06.126Z,-5.33
2023-02-09T08:18:43.640Z,-5.17
2023-02-09T08:21:17.762Z,-4.99
2023-02-09T08:23:56.787Z,-4.86
2023-02-09T08:26:27.630Z,-4.73
2023-02-09T08:29:04.397Z,-4.64
2023-02-09T08:31:46.240Z,-4.53
2023-02-09T08:34:21.352Z,-4.38
2023-02-09T08:36:54.078Z,-4.30
2023-02-09T08:39:36.802Z,-4.16
2023-02-09T08:42:06.380Z,-4.11
2023-02-09T08:44:36.438Z,-3.98
2023-02-09T08:47:06.029Z,-3.93
2023-02-09T08:49:37.144Z,-3.81
2023-02-09T08:52:08.739Z,-3.57
2023-02-09T08:54:39.328Z,-3.39
2023-02-09T08:57:09.436Z,-3.26
2023-02-09T08:59:38.622Z,-3.10
2023-02-09T09:02:08.812Z,-2.97
2023-02-09T09:04:39.044Z,-2.86
2023-02-09T09:07:10.596Z,-2.68
2023-02-09T09:09:40.735Z,-2.49
2023-02-09T09:12:11.120Z,-2.30
2023-02-09T09:14:42.308Z,-2.11
2023-02-09T09:17:11.674Z,-1.90
2023-02-09T09:19:42.501Z,-1.65
2023-02-09T09:22:15.957Z,-1.43
2023-02-09T09:24:45.860Z,-1.27
2023-02-09T09:27:17.885Z,-1.03
2023-02-09T09:29:48.955Z,-0.83
2023-02-09T09:32:25.901Z,-0.60
2023-02-09T09:34:59.348Z,-0.34
2023-02-09T09:37:29.596Z,-0.09
2023-02-09T09:39:59.969Z,0.08
2023-02-09T09:42:43.365Z,0.32
2023-02-09T09:45:16.949Z,0.55
2023-02-09T09:47:48.396Z,0.79
2023-02-09T09:50:32.958Z,1.16
2023-02-09T09:53:09.544Z,1.50
2023-02-09T09:55:43.543Z,1.85
2023-02-09T09:58:23.975Z,2.15
2023-02-09T10:00:55.883Z,2.42
2023-02-09T10:03:26.756Z,2.66
2023-02-09T10:06:18.618Z,2.92
2023-02-09T10:09:19.445Z,3.27
2023-02-09T10:12:04.568Z,3.58
2023-02-09T10:14:43.978Z,3.94
2023-02-09T10:17:25.116Z,4.16
2023-02-09T10:20:12.366Z,4.41
2023-02-09T10:23:04.974Z,4.77
2023-02-09T10:26:02.589Z,5.10
2023-02-09T10:28:46.443Z,5.52
2023-02-09T10:31:33.503Z,5.72
2023-02-09T10:34:50.728Z,6.14
2023-02-09T10:37:44.722Z,6.55
2023-02-09T10:40:47.775Z,6.98
2023-02-09T10:43:36.179Z,7.28
2023-02-09T10:46:30.433Z,7.51
2023-02-09T10:49:46.561Z,7.66
2023-02-09T10:52:36.947Z,7.76
2023-02-09T10:55:38.037Z,7.90
2023-02-09T10:58:39.347Z,7.69
2023-02-09T11:01:46.376Z,7.84
2023-02-09T11:04:40.479Z,8.09
2023-02-09T11:07:55.756Z,8.20
2023-02-09T11:10:55.894Z,8.27
2023-02-09T11:13:35.740Z,8.52
2023-02-09T11:16:52.406Z,8.61
2023-02-09T11:19:43.253Z,8.70
2023-02-09T11:22:46.516Z,9.07
2023-02-09T11:25:42.456Z,9.46
2023-02-09T11:28:28.239Z,9.71
2023-02-09T11:31:32.376Z,9.92
2023-02-09T11:34:45.090Z,10.11
2023-02-09T11:37:47.693Z,10.23
2023-02-09T11:40:39.549Z,10.48
2023-02-09T11:43:11.469Z,10.60
2023-02-09T11:46:04.863Z,10.78
2023-02-09T11:49:09.198Z,11.08
2023-02-09T11:52:11.838Z,11.20
2023-02-09T11:55:34.558Z,11.34
2023-02-09T11:58:29.671Z,11.47
2023-02-09T12:01:38.505Z,11.61
2023-02-09T12:04:46.722Z,11.68
2023-02-09T12:07:46.192Z,11.76
2023-02-09T12:10:52.118Z,11.99
2023-02-09T12:14:04.169Z,12.05
2023-02-09T12:16:50.541Z,12.14
2023-02-09T12:19:50.536Z,12.30
2023-02-09T12:22:48.403Z,12.49
2023-02-09T12:26:09.077Z,12.57
2023-02-09T12:29:01.205Z,12.45
2023-02-09T12:31:58.385Z,12.29
2023-02-09T12:34:57.148Z,12.14
2023-02-09T12:37:41.291Z,12.24
2023-02-09T12:40:42.646Z,12.48
2023-02-09T12:43:35.258Z,12.66
2023-02-09T12:46:55.702Z,12.79
2023-02-09T12:49:28.510Z,12.46
2023-02-09T12:52:01.785Z,12.51
2023-02-09T12:54:42.835Z,12.46
2023-02-09T12:57:17.672Z,12.63
2023-02-09T13:00:05.525Z,12.59
2023-02-09T13:02:47.342Z,12.40
2023-02-09T13:05:27.835Z,12.40
2023-02-09T13:08:04.550Z,12.44
2023-02-09T13:11:00.246Z,12.48
2023-02-09T13:13:57.018Z,12.50
2023-02-09T13:16:30.511Z,12.48
2023-02-09T13:19:15.659Z,12.71
2023-02-09T13:22:16.775Z,12.88
2023-02-09T13:25:03.931Z,12.84
2023-02-09T13:27:52.265Z,12.64
2023-02-09T13:30:33.534Z,12.53
2023-02-09T13:33:36.552Z,12.49
2023-02-09T13:36:42.655Z,12.46
2023-02-09T13:39:27.322Z,12.42
2023-02-09T13:42:09.724Z,12.38
2023-02-09T13:44:48.140Z,12.40
2023-02-09T13:47:20.932Z,12.31
2023-02-09T13:50:06.737Z,12.30
2023-02-09T13:52:45.044Z,12.16
2023-02-09T13:55:23.631Z,12.01
2023-02-09T13:58:07.688Z,12.12
2023-02-09T14:01:09.352Z,12.17
2023-02-09T14:03:58.211Z,12.00
2023-02-09T14:06:46.696Z,11.98
2023-02-09T14:09:33.712Z,11.97
2023-02-09T14:12:09.765Z,11.90
2023-02-09T14:15:04.176Z,11.75
2023-02-09T14:17:36.287Z,11.62
2023-02-09T14:20:22.140Z,11.73
2023-02-09T14:23:02.075Z,11.70
2023-02-09T14:25:32.331Z,11.46
2023-02-09T14:28:03.924Z,11.24
2023-02-09T14:30:37.846Z,11.20
2023-02-09T14:33:29.723Z,11.19
2023-02-09T14:36:03.595Z,11.00
2023-02-09T14:38:41.788Z,10.85
2023-02-09T14:41:32.125Z,10.69
2023-02-09T14:44:22.780Z,10.55
2023-02-09T14:47:00.479Z,10.42
2023-02-09T14:49:31.341Z,10.16
2023-02-09T14:52:05.880Z,10.00
2023-02-09T14:54:50.071Z,9.73
2023-02-09T14:57:21.766Z,9.34
2023-02-09T14:59:52.118Z,8.91
2023-02-09T15:02:27.671Z,8.46
2023-02-09T15:04:56.952Z,7.90
2023-02-09T15:07:36.583Z,7.16
2023-02-09T15:10:14.855Z,6.43
2023-02-09T15:12:44.544Z,5.73
2023-02-09T15:15:20.338Z,5.15
2023-02-09T15:17:50.759Z,4.51
2023-02-09T15:20:26.696Z,3.99
2023-02-09T15:23:01.720Z,3.44
2023-02-09T15:25:34.185Z,2.96
2023-02-09T15:28:04.517Z,2.52
2023-02-09T15:30:36.650Z,2.07
2023-02-09T15:33:08.824Z,1.68
2023-02-09T15:35:41.834Z,1.26
2023-02-09T15:38:16.201Z,0.83
2023-02-09T15:41:08.279Z,0.59
2023-02-09T15:43:56.944Z,0.34
2023-02-09T15:46:46.118Z,0.14
2023-02-09T15:49:16.589Z,-0.09
2023-02-09T15:51:46.331Z,-0.24
2023-02-09T15:54:20.626Z,-0.38
2023-02-09T15:56:51.043Z,-0.54
2023-02-09T15:59:23.878Z,-0.73
2023-02-09T16:01:54.805Z,-0.94
2023-02-09T16:04:24.572Z,-1.09
2023-02-09T16:06:55.904Z,-1.22
2023-02-09T16:09:28.233Z,-1.28
2023-02-09T16:11:59.566Z,-1.32
2023-02-09T16:14:32.020Z,-1.38
2023-02-09T16:17:01.671Z,-1.53
2023-02-09T16:19:31.621Z,-1.75
2023-02-09T16:22:09.891Z,-1.90
2023-02-09T16:24:51.850Z,-2.03
2023-02-09T16:27:31.324Z,-2.18
2023-02-09T16:30:05.131Z,-2.32
2023-02-09T16:32:37.566Z,-2.36
2023-02-09T16:35:17.064Z,-2.40
2023-02-09T16:37:50.190Z,-2.42
2023-02-09T16:40:38.837Z,-2.50
2023-02-09T16:43:13.157Z,-2.58
2023-02-09T16:46:00.907Z,-2.67
2023-02-09T16:48:38.377Z,-2.81
2023-02-09T16:51:16.861Z,-2.86
2023-02-09T16:53:54.595Z,-2.86
2023-02-09T16:56:28.063Z,-2.89
2023-02-09T16:59:03.372Z,-2.93
2023-02-09T17:01:34.919Z,-2.96
2023-02-09T17:04:09.902Z,-2.99
2023-02-09T17:06:40.275Z,-3.04
2023-02-09T17:09:16.779Z,-3.13
2023-02-09T17:11:54.688Z,-3.17
2023-02-09T17:14:28.671Z,-3.27
2023-02-09T17:17:07.387Z,-3.51
2023-02-09T17:19:47.295Z,-3.69
2023-02-09T17:22:23.178Z,-3.82
2023-02-09T17:24:53.819Z,-3.91
2023-02-09T17:27:26.566Z,-3.99
2023-02-09T17:29:56.885Z,-4.08
2023-02-09T17:32:27.785Z,-4.13
2023-02-09T17:34:57.960Z,-4.27
2023-02-09T17:37:29.170Z,-4.46
2023-02-09T17:39:59.530Z,-4.61
2023-02-09T17:42:29.476Z,-4.69
2023-02-09T17:44:59.826Z,-4.78
2023-02-09T17:47:31.610Z,-4.88
2023-02-09T17:50:03.265Z,-5.03
2023-02-09T17:52:42.997Z,-5.17
2023-02-09T17:55:26.516Z,-5.23
2023-02-09T17:57:59.935Z,-5.24
2023-02-09T18:00:37.431Z,-5.23
2023-02-09T18:03:15.799Z,-5.29
2023-02-09T18:05:52.885Z,-5.28
2023-02-09T18:08:27.961Z,-5.29
2023-02-09T18:10:59.677Z,-5.40
2023-02-09T18:13:32.780Z,-5.48
2023-02-09T18:16:07.938Z,-5.56
2023-02-09T18:18:38.339Z,-5.65
2023-02-09T18:21:16.630Z,-5.70
2023-02-09T18:23:47.118Z,-5.77
2023-02-09T18:26:18.147Z,-5.81
2023-02-09T18:28:56.921Z,-5.85
2023-02-09T18:31:26.436Z,-5.32
2023-02-09T18:33:59.956Z,-4.98
2023-02-09T18:36:29.574Z,-5.06
2023-02-09T18:39:01.420Z,-5.18
2023-02-09T18:41:36.232Z,-5.27
2023-02-09T18:44:05.238Z,-5.43
2023-02-09T18:46:38.051Z,-5.60
2023-02-09T18:49:16.412Z,-5.77
2023-02-09T18:52:03.376Z,-5.94
2023-02-09T18:54:44.226Z,-6.08
2023-02-09T18:57:23.591Z,-6.21
2023-02-09T19:00:14.083Z,-6.37
2023-02-09T19:02:48.429Z,-6.53
2023-02-09T19:05:26.126Z,-6.63
2023-02-09T19:08:11.681Z,-6.75
2023-02-09T19:10:47.634Z,-6.83
2023-02-09T19:13:20.617Z,-6.89
2023-02-09T19:15:59.322Z,-6.94
2023-02-09T19:18:32.177Z,-7.03
2023-02-09T19:21:10.635Z,-7.10
2023-02-09T19:23:43.598Z,-7.23
2023-02-09T19:26:25.014Z,-7.32
2023-02-09T19:29:02.319Z,-7.39
2023-02-09T19:31:31.629Z,-7.40
2023-02-09T19:34:00.962Z,-7.45
2023-02-09T19:36:31.080Z,-7.50
2023-02-09T19:39:05.755Z,-7.54
2023-02-09T19:41:35.556Z,-7.57
2023-02-09T19:44:06.799Z,-7.64
2023-02-09T19:46:38.371Z,-7.69
2023-02-09T19:49:10.626Z,-7.72
2023-02-09T19:51:40.240Z,-7.76
2023-02-09T19:54:09.437Z,-7.79
2023-02-09T19:56:42.560Z,-7.82
2023-02-09T19:59:14.070Z,-7.86
2023-02-09T20:01:43.960Z,-7.87
2023-02-09T20:04:15.618Z,-7.87
2023-02-09T20:06:45.276Z,-7.93
2023-02-09T20:09:17.929Z,-7.99
2023-02-09T20:14:20.226Z,-8.07
2023-02-09T20:16:54.221Z,-8.09
2023-02-09T20:19:24.336Z,-8.13
2023-02-09T20:21:56.515Z,-8.21
2023-02-09T20:24:27.119Z,-8.26
2023-02-09T20:26:59.527Z,-8.28
2023-02-09T20:29:30.479Z,-8.29
2023-02-09T20:32:02.486Z,-8.29
2023-02-09T20:34:32.914Z,-8.28
2023-02-09T20:37:02.982Z,-8.23
2023-02-09T20:39:34.798Z,-8.24
2023-02-09T20:42:25.921Z,-8.25
2023-02-09T20:45:14.504Z,-8.28
2023-02-09T20:47:45.430Z,-8.29
2023-02-09T20:50:22.619Z,-8.32
2023-02-09T20:53:04.434Z,-8.35
2023-02-09T20:55:46.526Z,-8.41
2023-02-09T20:58:16.227Z,-8.44
2023-02-09T21:00:46.959Z,-8.45
2023-02-09T21:03:17.684Z,-8.44
2023-02-09T21:05:48.329Z,-8.44
2023-02-09T21:08:18.784Z,-8.46
2023-02-09T21:10:59.350Z,-8.49
2023-02-09T21:13:28.636Z,-8.49
2023-02-09T21:15:58.646Z,-8.52
2023-02-09T21:18:29.567Z,-8.59
2023-02-09T21:21:09.706Z,-8.67
2023-02-09T21:23:39.435Z,-8.73
2023-02-09T21:26:12.911Z,-8.77
2023-02-09T21:28:44.282Z,-8.81
2023-02-09T21:31:27.586Z,-8.85
2023-02-09T21:33:57.717Z,-8.92
2023-02-09T21:36:27.464Z,-8.94
2023-02-09T21:38:57.762Z,-8.97
2023-02-09T21:41:46.620Z,-8.99
2023-02-09T21:44:16.249Z,-9.00
2023-02-09T21:46:46.344Z,-9.04
2023-02-09T21:49:16.396Z,-9.07
2023-02-09T21:51:46.421Z,-9.10
2023-02-09T21:54:19.870Z,-9.18
2023-02-09T21:56:49.554Z,-9.21
2023-02-09T21:59:19.210Z,-9.23
2023-02-09T22:01:49.426Z,-9.24
2023-02-09T22:04:19.496Z,-9.30
2023-02-09T22:06:49.765Z,-9.33
2023-02-09T22:09:20.806Z,-8.43
2023-02-09T22:11:51.928Z,-8.35
2023-02-09T22:14:22.913Z,-8.45
2023-02-09T22:16:52.920Z,-8.59
2023-02-09T22:19:23.633Z,-8.69
2023-02-09T22:21:57.274Z,-8.79
2023-02-09T22:24:27.237Z,-8.88
2023-02-09T22:26:58.286Z,-8.98
2023-02-09T22:29:29.325Z,-9.09
2023-02-09T22:31:58.373Z,-9.20
2023-02-09T22:34:29.898Z,-9.31
2023-02-09T22:36:59.302Z,-9.37
2023-02-09T22:39:29.585Z,-9.42
2023-02-09T22:42:02.405Z,-9.45
2023-02-09T22:44:33.863Z,-9.46
2023-02-09T22:47:03.250Z,-9.47
2023-02-09T22:49:35.205Z,-9.50
2023-02-09T22:52:05.639Z,-9.52
2023-02-09T22:54:35.001Z,-9.49
2023-02-09T22:57:04.256Z,-9.48
2023-02-09T22:59:33.536Z,-9.51
2023-02-09T23:02:05.430Z,-9.52
2023-02-09T23:04:35.624Z,-9.53
2023-02-09T23:07:09.275Z,-9.56
2023-02-09T23:09:38.761Z,-9.58
2023-02-09T23:12:10.903Z,-9.62
2023-02-09T23:14:41.128Z,-9.68
2023-02-09T23:17:10.969Z,-9.74
2023-02-09T23:19:45.482Z,-9.78
2023-02-09T23:22:17.201Z,-9.88
2023-02-09T23:24:49.884Z,-10.00
2023-02-09T23:27:22.800Z,-10.11
2023-02-09T23:29:54.675Z,-10.19
2023-02-09T23:32:24.454Z,-10.28
2023-02-09T23:34:57.023Z,-10.31
2023-02-09T23:37:37.182Z,-10.31
2023-02-09T23:40:12.343Z,-10.30
2023-02-09T23:42:42.090Z,-10.28
2023-02-09T23:45:11.748Z,-10.23
2023-02-09T23:47:44.774Z,-10.16
2023-02-09T23:50:14.443Z,-10.12
2023-02-09T23:52:45.477Z,-10.09
2023-02-09T23:55:15.201Z,-10.04
2023-02-09T23:57:44.907Z,-9.97
